<?xml version="1.0" encoding="UTF-8" standalone="no" ?>
<gpx xmlns="http://www.topografix.com/GPX/1/1" xmlns:xsi="http://www.w3.org/2001/XMLSchema-instance" xsi:schemaLocation="http://www.topografix.com/GPX/1/1 http://www.topografix.com/GPX/1/1/gpx.xsd" version="1.1" creator="VisuGPX - https://www.visugpx.com">
  <metadata>
    <name>Trigance-pont de Tusset et retour</name>
    <desc><![CDATA[Passage par le belvédère de rancoumas ,pont deTusset , pont de Carajuan et le dernier belvédère pour observer de près les vautours fauves et leurs aires de nidification.]]></desc>
  </metadata>
  <trk>
    <name><![CDATA[TRIGANCE a01:23:11 PM]]></name>
    <trkseg>
      <trkpt lat="43.76141" lon="6.44421">
        <ele>801.88</ele>
        <time>2017-05-22T07:41:42Z</time>
      </trkpt>
      <trkpt lat="43.76165" lon="6.44285">
        <ele>809.09</ele>
        <time>2017-05-22T07:44:22Z</time>
      </trkpt>
      <trkpt lat="43.76168" lon="6.44136">
        <ele>815.82</ele>
        <time>2017-05-22T07:45:55Z</time>
      </trkpt>
      <trkpt lat="43.76161" lon="6.43985">
        <ele>821.58</ele>
        <time>2017-05-22T07:47:37Z</time>
      </trkpt>
      <trkpt lat="43.76126" lon="6.43853">
        <ele>827.83</ele>
        <time>2017-05-22T07:49:06Z</time>
      </trkpt>
      <trkpt lat="43.76042" lon="6.43799">
        <ele>832.16</ele>
        <time>2017-05-22T07:50:28Z</time>
      </trkpt>
      <trkpt lat="43.76016" lon="6.4372">
        <ele>837.45</ele>
        <time>2017-05-22T07:52:56Z</time>
      </trkpt>
      <trkpt lat="43.76037" lon="6.43591">
        <ele>851.87</ele>
        <time>2017-05-22T07:54:37Z</time>
      </trkpt>
      <trkpt lat="43.76002" lon="6.43477">
        <ele>868.21</ele>
        <time>2017-05-22T07:56:44Z</time>
      </trkpt>
      <trkpt lat="43.76066" lon="6.4337">
        <ele>875.42</ele>
        <time>2017-05-22T07:58:30Z</time>
      </trkpt>
      <trkpt lat="43.76148" lon="6.4327">
        <ele>891.28</ele>
        <time>2017-05-22T08:00:37Z</time>
      </trkpt>
      <trkpt lat="43.76213" lon="6.43154">
        <ele>908.58</ele>
        <time>2017-05-22T08:02:51Z</time>
      </trkpt>
      <trkpt lat="43.76271" lon="6.43028">
        <ele>920.6</ele>
        <time>2017-05-22T08:05:23Z</time>
      </trkpt>
      <trkpt lat="43.7625" lon="6.42855">
        <ele>925.89</ele>
        <time>2017-05-22T08:07:41Z</time>
      </trkpt>
      <trkpt lat="43.76337" lon="6.42672">
        <ele>920.12</ele>
        <time>2017-05-22T08:10:52Z</time>
      </trkpt>
      <trkpt lat="43.76418" lon="6.42444">
        <ele>926.85</ele>
        <time>2017-05-22T08:13:52Z</time>
      </trkpt>
      <trkpt lat="43.765" lon="6.42255">
        <ele>950.4</ele>
        <time>2017-05-22T08:18:07Z</time>
      </trkpt>
      <trkpt lat="43.76573" lon="6.42101">
        <ele>963.86</ele>
        <time>2017-05-22T08:21:51Z</time>
      </trkpt>
      <trkpt lat="43.76596" lon="6.41919">
        <ele>980.68</ele>
        <time>2017-05-22T08:25:43Z</time>
      </trkpt>
      <trkpt lat="43.76604" lon="6.4174">
        <ele>1003.27</ele>
        <time>2017-05-22T08:28:50Z</time>
      </trkpt>
      <trkpt lat="43.76628" lon="6.41584">
        <ele>1020.1</ele>
        <time>2017-05-22T08:31:22Z</time>
      </trkpt>
      <trkpt lat="43.76628" lon="6.41424">
        <ele>1039.32</ele>
        <time>2017-05-22T08:36:43Z</time>
      </trkpt>
      <trkpt lat="43.76563" lon="6.41246">
        <ele>1054.22</ele>
        <time>2017-05-22T08:40:31Z</time>
      </trkpt>
      <trkpt lat="43.7651" lon="6.4112">
        <ele>1058.55</ele>
        <time>2017-05-22T08:42:20Z</time>
      </trkpt>
      <trkpt lat="43.76425" lon="6.40976">
        <ele>1070.57</ele>
        <time>2017-05-22T08:44:48Z</time>
      </trkpt>
      <trkpt lat="43.7627" lon="6.40956">
        <ele>1086.91</ele>
        <time>2017-05-22T08:47:42Z</time>
      </trkpt>
      <trkpt lat="43.7626" lon="6.40842">
        <ele>1093.64</ele>
        <time>2017-05-22T08:49:16Z</time>
      </trkpt>
      <trkpt lat="43.76311" lon="6.40756">
        <ele>1093.64</ele>
        <time>2017-05-22T08:52:40Z</time>
      </trkpt>
      <trkpt lat="43.76403" lon="6.40724">
        <ele>1100.85</ele>
        <time>2017-05-22T08:54:03Z</time>
      </trkpt>
      <trkpt lat="43.76481" lon="6.40655">
        <ele>1104.69</ele>
        <time>2017-05-22T08:56:05Z</time>
      </trkpt>
      <trkpt lat="43.76575" lon="6.4064">
        <ele>1115.27</ele>
        <time>2017-05-22T08:58:27Z</time>
      </trkpt>
      <trkpt lat="43.76689" lon="6.40609">
        <ele>1119.59</ele>
        <time>2017-05-22T09:00:02Z</time>
      </trkpt>
      <trkpt lat="43.76789" lon="6.40593">
        <ele>1127.76</ele>
        <time>2017-05-22T09:01:30Z</time>
      </trkpt>
      <trkpt lat="43.76876" lon="6.40645">
        <ele>1137.38</ele>
        <time>2017-05-22T09:03:11Z</time>
      </trkpt>
      <trkpt lat="43.77003" lon="6.40579">
        <ele>1151.32</ele>
        <time>2017-05-22T09:05:57Z</time>
      </trkpt>
      <trkpt lat="43.77121" lon="6.40491">
        <ele>1134.97</ele>
        <time>2017-05-22T09:11:35Z</time>
      </trkpt>
      <trkpt lat="43.77237" lon="6.40396">
        <ele>1112.86</ele>
        <time>2017-05-22T09:13:36Z</time>
      </trkpt>
      <trkpt lat="43.77269" lon="6.40472">
        <ele>1099.4</ele>
        <time>2017-05-22T09:15:36Z</time>
      </trkpt>
      <trkpt lat="43.7737" lon="6.40296">
        <ele>1066.24</ele>
        <time>2017-05-22T09:18:29Z</time>
      </trkpt>
      <trkpt lat="43.77433" lon="6.40112">
        <ele>1031.63</ele>
        <time>2017-05-22T09:22:17Z</time>
      </trkpt>
      <trkpt lat="43.77516" lon="6.40028">
        <ele>1007.12</ele>
        <time>2017-05-22T09:24:25Z</time>
      </trkpt>
      <trkpt lat="43.77456" lon="6.39912">
        <ele>991.26</ele>
        <time>2017-05-22T09:27:46Z</time>
      </trkpt>
      <trkpt lat="43.77524" lon="6.39829">
        <ele>994.14</ele>
        <time>2017-05-22T09:30:32Z</time>
      </trkpt>
      <trkpt lat="43.77526" lon="6.39691">
        <ele>989.81</ele>
        <time>2017-05-22T09:32:21Z</time>
      </trkpt>
      <trkpt lat="43.77522" lon="6.39561">
        <ele>980.2</ele>
        <time>2017-05-22T09:33:47Z</time>
      </trkpt>
      <trkpt lat="43.77545" lon="6.39425">
        <ele>978.28</ele>
        <time>2017-05-22T09:35:30Z</time>
      </trkpt>
      <trkpt lat="43.77553" lon="6.39369">
        <ele>975.39</ele>
        <time>2017-05-22T09:47:51Z</time>
      </trkpt>
      <trkpt lat="43.77532" lon="6.39474">
        <ele>975.39</ele>
        <time>2017-05-22T09:50:02Z</time>
      </trkpt>
      <trkpt lat="43.7752" lon="6.39616">
        <ele>984.05</ele>
        <time>2017-05-22T09:52:02Z</time>
      </trkpt>
      <trkpt lat="43.77523" lon="6.39668">
        <ele>987.89</ele>
        <time>2017-05-22T09:54:17Z</time>
      </trkpt>
      <trkpt lat="43.77523" lon="6.39533">
        <ele>975.88</ele>
        <time>2017-05-22T09:55:44Z</time>
      </trkpt>
      <trkpt lat="43.77545" lon="6.39395">
        <ele>973.95</ele>
        <time>2017-05-22T09:58:00Z</time>
      </trkpt>
      <trkpt lat="43.77588" lon="6.39452">
        <ele>977.8</ele>
        <time>2017-05-22T10:01:32Z</time>
      </trkpt>
      <trkpt lat="43.7764" lon="6.39532">
        <ele>970.11</ele>
        <time>2017-05-22T10:02:59Z</time>
      </trkpt>
      <trkpt lat="43.77699" lon="6.39632">
        <ele>960.49</ele>
        <time>2017-05-22T10:05:23Z</time>
      </trkpt>
      <trkpt lat="43.77826" lon="6.39693">
        <ele>946.07</ele>
        <time>2017-05-22T10:07:28Z</time>
      </trkpt>
      <trkpt lat="43.77947" lon="6.39787">
        <ele>917.72</ele>
        <time>2017-05-22T10:10:15Z</time>
      </trkpt>
      <trkpt lat="43.78129" lon="6.39948">
        <ele>904.26</ele>
        <time>2017-05-22T10:14:23Z</time>
      </trkpt>
      <trkpt lat="43.7833" lon="6.40011">
        <ele>862.44</ele>
        <time>2017-05-22T10:19:58Z</time>
      </trkpt>
      <trkpt lat="43.78503" lon="6.40126">
        <ele>811.01</ele>
        <time>2017-05-22T10:27:00Z</time>
      </trkpt>
      <trkpt lat="43.78593" lon="6.40207">
        <ele>776.4</ele>
        <time>2017-05-22T10:31:46Z</time>
      </trkpt>
      <trkpt lat="43.78661" lon="6.40248">
        <ele>741.79</ele>
        <time>2017-05-22T10:35:20Z</time>
      </trkpt>
      <trkpt lat="43.78759" lon="6.4034">
        <ele>706.23</ele>
        <time>2017-05-22T10:39:25Z</time>
      </trkpt>
      <trkpt lat="43.78859" lon="6.40429">
        <ele>683.15</ele>
        <time>2017-05-22T10:43:08Z</time>
      </trkpt>
      <trkpt lat="43.78902" lon="6.40609">
        <ele>647.59</ele>
        <time>2017-05-22T10:47:54Z</time>
      </trkpt>
      <trkpt lat="43.78971" lon="6.40745">
        <ele>638.45</ele>
        <time>2017-05-22T10:55:49Z</time>
      </trkpt>
      <trkpt lat="43.79033" lon="6.40714">
        <ele>634.13</ele>
        <time>2017-05-22T11:00:34Z</time>
      </trkpt>
      <trkpt lat="43.7905" lon="6.40728">
        <ele>643.26</ele>
        <time>2017-05-22T11:25:58Z</time>
      </trkpt>
      <trkpt lat="43.79054" lon="6.40552">
        <ele>653.35</ele>
        <time>2017-05-22T11:32:24Z</time>
      </trkpt>
      <trkpt lat="43.79164" lon="6.40401">
        <ele>686.52</ele>
        <time>2017-05-22T11:37:14Z</time>
      </trkpt>
      <trkpt lat="43.79254" lon="6.40345">
        <ele>719.2</ele>
        <time>2017-05-22T11:42:37Z</time>
      </trkpt>
      <trkpt lat="43.79301" lon="6.40381">
        <ele>738.91</ele>
        <time>2017-05-22T11:46:45Z</time>
      </trkpt>
      <trkpt lat="43.79363" lon="6.40513">
        <ele>749</ele>
        <time>2017-05-22T11:48:50Z</time>
      </trkpt>
      <trkpt lat="43.79337" lon="6.40653">
        <ele>754.77</ele>
        <time>2017-05-22T11:50:46Z</time>
      </trkpt>
      <trkpt lat="43.79353" lon="6.40757">
        <ele>749.97</ele>
        <time>2017-05-22T11:54:31Z</time>
      </trkpt>
      <trkpt lat="43.79441" lon="6.40742">
        <ele>743.72</ele>
        <time>2017-05-22T11:56:02Z</time>
      </trkpt>
      <trkpt lat="43.79575" lon="6.40771">
        <ele>735.55</ele>
        <time>2017-05-22T11:57:49Z</time>
      </trkpt>
      <trkpt lat="43.79593" lon="6.40883">
        <ele>728.82</ele>
        <time>2017-05-22T11:59:25Z</time>
      </trkpt>
      <trkpt lat="43.79618" lon="6.41009">
        <ele>724.01</ele>
        <time>2017-05-22T12:00:58Z</time>
      </trkpt>
      <trkpt lat="43.79633" lon="6.41133">
        <ele>719.68</ele>
        <time>2017-05-22T12:03:46Z</time>
      </trkpt>
      <trkpt lat="43.79694" lon="6.41248">
        <ele>714.88</ele>
        <time>2017-05-22T12:05:13Z</time>
      </trkpt>
      <trkpt lat="43.79675" lon="6.41366">
        <ele>709.11</ele>
        <time>2017-05-22T12:08:21Z</time>
      </trkpt>
      <trkpt lat="43.79625" lon="6.41473">
        <ele>702.38</ele>
        <time>2017-05-22T12:09:57Z</time>
      </trkpt>
      <trkpt lat="43.7959" lon="6.41592">
        <ele>696.13</ele>
        <time>2017-05-22T12:11:16Z</time>
      </trkpt>
      <trkpt lat="43.79519" lon="6.41696">
        <ele>689.4</ele>
        <time>2017-05-22T12:12:38Z</time>
      </trkpt>
      <trkpt lat="43.79452" lon="6.41804">
        <ele>683.63</ele>
        <time>2017-05-22T12:14:13Z</time>
      </trkpt>
      <trkpt lat="43.79396" lon="6.4191">
        <ele>677.87</ele>
        <time>2017-05-22T12:15:45Z</time>
      </trkpt>
      <trkpt lat="43.79321" lon="6.42005">
        <ele>672.1</ele>
        <time>2017-05-22T12:17:30Z</time>
      </trkpt>
      <trkpt lat="43.79283" lon="6.42136">
        <ele>667.29</ele>
        <time>2017-05-22T12:18:53Z</time>
      </trkpt>
      <trkpt lat="43.79192" lon="6.42214">
        <ele>660.56</ele>
        <time>2017-05-22T12:20:54Z</time>
      </trkpt>
      <trkpt lat="43.79125" lon="6.42304">
        <ele>655.76</ele>
        <time>2017-05-22T12:22:29Z</time>
      </trkpt>
      <trkpt lat="43.79073" lon="6.42499">
        <ele>652.87</ele>
        <time>2017-05-22T12:24:09Z</time>
      </trkpt>
      <trkpt lat="43.79107" lon="6.42621">
        <ele>651.91</ele>
        <time>2017-05-22T12:25:22Z</time>
      </trkpt>
      <trkpt lat="43.79145" lon="6.42754">
        <ele>651.91</ele>
        <time>2017-05-22T12:26:50Z</time>
      </trkpt>
      <trkpt lat="43.79145" lon="6.42881">
        <ele>652.87</ele>
        <time>2017-05-22T12:28:11Z</time>
      </trkpt>
      <trkpt lat="43.79214" lon="6.43003">
        <ele>652.87</ele>
        <time>2017-05-22T12:29:45Z</time>
      </trkpt>
      <trkpt lat="43.79248" lon="6.43141">
        <ele>652.87</ele>
        <time>2017-05-22T12:31:13Z</time>
      </trkpt>
      <trkpt lat="43.79163" lon="6.4321">
        <ele>652.39</ele>
        <time>2017-05-22T12:33:57Z</time>
      </trkpt>
      <trkpt lat="43.7916" lon="6.43274">
        <ele>647.59</ele>
        <time>2017-05-22T12:43:58Z</time>
      </trkpt>
      <trkpt lat="43.79172" lon="6.43073">
        <ele>655.28</ele>
        <time>2017-05-22T12:48:21Z</time>
      </trkpt>
      <trkpt lat="43.79103" lon="6.42916">
        <ele>691.81</ele>
        <time>2017-05-22T12:53:04Z</time>
      </trkpt>
      <trkpt lat="43.79009" lon="6.42735">
        <ele>734.1</ele>
        <time>2017-05-22T12:58:52Z</time>
      </trkpt>
      <trkpt lat="43.78948" lon="6.42516">
        <ele>781.69</ele>
        <time>2017-05-22T13:08:07Z</time>
      </trkpt>
      <trkpt lat="43.78963" lon="6.42344">
        <ele>811.49</ele>
        <time>2017-05-22T13:13:32Z</time>
      </trkpt>
      <trkpt lat="43.79016" lon="6.42213">
        <ele>835.52</ele>
        <time>2017-05-22T13:16:59Z</time>
      </trkpt>
      <trkpt lat="43.79052" lon="6.42087">
        <ele>861.96</ele>
        <time>2017-05-22T13:26:55Z</time>
      </trkpt>
      <trkpt lat="43.79096" lon="6.41954">
        <ele>893.68</ele>
        <time>2017-05-22T13:45:11Z</time>
      </trkpt>
      <trkpt lat="43.79019" lon="6.42083">
        <ele>873.98</ele>
        <time>2017-05-22T13:51:28Z</time>
      </trkpt>
      <trkpt lat="43.78915" lon="6.42333">
        <ele>832.64</ele>
        <time>2017-05-22T13:58:03Z</time>
      </trkpt>
      <trkpt lat="43.78742" lon="6.4231">
        <ele>829.27</ele>
        <time>2017-05-22T14:01:09Z</time>
      </trkpt>
      <trkpt lat="43.78626" lon="6.42334">
        <ele>817.26</ele>
        <time>2017-05-22T14:03:30Z</time>
      </trkpt>
      <trkpt lat="43.7848" lon="6.42436">
        <ele>805.24</ele>
        <time>2017-05-22T14:06:02Z</time>
      </trkpt>
      <trkpt lat="43.78363" lon="6.42552">
        <ele>809.09</ele>
        <time>2017-05-22T14:09:35Z</time>
      </trkpt>
      <trkpt lat="43.78223" lon="6.42686">
        <ele>805.72</ele>
        <time>2017-05-22T14:12:06Z</time>
      </trkpt>
      <trkpt lat="43.78155" lon="6.42919">
        <ele>788.9</ele>
        <time>2017-05-22T14:14:57Z</time>
      </trkpt>
      <trkpt lat="43.78106" lon="6.43127">
        <ele>782.17</ele>
        <time>2017-05-22T14:18:56Z</time>
      </trkpt>
      <trkpt lat="43.77995" lon="6.43216">
        <ele>780.73</ele>
        <time>2017-05-22T14:21:00Z</time>
      </trkpt>
      <trkpt lat="43.7789" lon="6.43289">
        <ele>777.36</ele>
        <time>2017-05-22T14:22:46Z</time>
      </trkpt>
      <trkpt lat="43.77789" lon="6.43324">
        <ele>777.36</ele>
        <time>2017-05-22T14:24:15Z</time>
      </trkpt>
      <trkpt lat="43.7769" lon="6.43417">
        <ele>772.08</ele>
        <time>2017-05-22T14:26:01Z</time>
      </trkpt>
      <trkpt lat="43.77626" lon="6.43551">
        <ele>762.94</ele>
        <time>2017-05-22T14:29:56Z</time>
      </trkpt>
      <trkpt lat="43.77548" lon="6.43641">
        <ele>757.66</ele>
        <time>2017-05-22T14:32:12Z</time>
      </trkpt>
      <trkpt lat="43.77471" lon="6.43731">
        <ele>749.97</ele>
        <time>2017-05-22T14:33:46Z</time>
      </trkpt>
      <trkpt lat="43.77376" lon="6.4376">
        <ele>748.52</ele>
        <time>2017-05-22T14:35:09Z</time>
      </trkpt>
      <trkpt lat="43.77272" lon="6.43782">
        <ele>745.64</ele>
        <time>2017-05-22T14:36:41Z</time>
      </trkpt>
      <trkpt lat="43.77174" lon="6.43819">
        <ele>744.2</ele>
        <time>2017-05-22T14:38:19Z</time>
      </trkpt>
      <trkpt lat="43.77107" lon="6.43906">
        <ele>745.64</ele>
        <time>2017-05-22T14:40:02Z</time>
      </trkpt>
      <trkpt lat="43.77011" lon="6.43947">
        <ele>750.45</ele>
        <time>2017-05-22T14:43:36Z</time>
      </trkpt>
      <trkpt lat="43.76912" lon="6.44006">
        <ele>753.33</ele>
        <time>2017-05-22T14:45:13Z</time>
      </trkpt>
      <trkpt lat="43.76782" lon="6.4408">
        <ele>758.62</ele>
        <time>2017-05-22T14:47:40Z</time>
      </trkpt>
      <trkpt lat="43.76688" lon="6.44159">
        <ele>769.19</ele>
        <time>2017-05-22T14:49:59Z</time>
      </trkpt>
      <trkpt lat="43.76619" lon="6.44234">
        <ele>778.32</ele>
        <time>2017-05-22T14:54:47Z</time>
      </trkpt>
      <trkpt lat="43.76559" lon="6.44342">
        <ele>786.02</ele>
        <time>2017-05-22T14:57:31Z</time>
      </trkpt>
      <trkpt lat="43.76483" lon="6.44427">
        <ele>793.71</ele>
        <time>2017-05-22T14:59:03Z</time>
      </trkpt>
      <trkpt lat="43.76392" lon="6.44475">
        <ele>796.11</ele>
        <time>2017-05-22T15:00:56Z</time>
      </trkpt>
      <trkpt lat="43.76295" lon="6.44507">
        <ele>793.71</ele>
        <time>2017-05-22T15:02:25Z</time>
      </trkpt>
      <trkpt lat="43.76177" lon="6.44531">
        <ele>792.74</ele>
        <time>2017-05-22T15:05:17Z</time>
      </trkpt>
      <trkpt lat="43.76108" lon="6.44402">
        <ele>790.34</ele>
        <time>2017-05-22T15:08:09Z</time>
      </trkpt>
      <trkpt lat="43.76066" lon="6.44244">
        <ele>783.13</ele>
        <time>2017-05-22T15:10:02Z</time>
      </trkpt>
    </trkseg>
  </trk>
</gpx>